createdAt,value
2022-11-14T00:01:28.164Z,99414.84
2022-11-14T00:04:13.784Z,99405.81
2022-11-14T00:06:59.246Z,99438.69
2022-11-14T00:09:44.860Z,99418.75
2022-11-14T00:12:30.841Z,99410.72
2022-11-14T00:15:16.919Z,99453.69
2022-11-14T00:18:02.905Z,99437.22
2022-11-14T00:20:52.794Z,99401.81
2022-11-14T00:23:38.772Z,99413.94
2022-11-14T00:26:24.342Z,99410.66
2022-11-14T00:29:12.008Z,99443.59
2022-11-14T00:31:57.530Z,99436.78
2022-11-14T00:34:43.555Z,99426.06
2022-11-14T00:37:30.375Z,99425.22
2022-11-14T00:40:16.621Z,99453.38
2022-11-14T00:43:02.307Z,99441.03
2022-11-14T00:45:48.356Z,99443.09
2022-11-14T00:48:34.271Z,99454.81
2022-11-14T00:51:19.747Z,99448.03
2022-11-14T00:54:05.554Z,99467.56
2022-11-14T00:56:54.165Z,99467.75
2022-11-14T00:59:39.591Z,99457.69
2022-11-14T01:02:25.168Z,99513.97
2022-11-14T01:05:10.657Z,99453.50
2022-11-14T01:07:56.415Z,99497.69
2022-11-14T01:10:43.748Z,99469.53
2022-11-14T01:13:32.846Z,99493.53
2022-11-14T01:16:20.101Z,99474.66
2022-11-14T01:19:06.336Z,99502.75
2022-11-14T01:21:51.998Z,99494.75
2022-11-14T01:24:37.886Z,99476.03
2022-11-14T01:27:23.301Z,99475.16
2022-11-14T01:30:09.063Z,99475.00
2022-11-14T01:32:56.167Z,99471.03
2022-11-14T01:35:41.665Z,99484.59
2022-11-14T01:38:27.516Z,99487.91
2022-11-14T01:41:15.521Z,99490.97
2022-11-14T01:44:05.563Z,99525.91
2022-11-14T01:46:56.845Z,99528.94
2022-11-14T01:49:47.763Z,99535.50
2022-11-14T01:52:40.781Z,99520.78
2022-11-14T01:55:27.599Z,99515.81
2022-11-14T01:58:14.492Z,99524.63
2022-11-14T02:01:00.741Z,99540.47
2022-11-14T02:03:49.286Z,99545.16
2022-11-14T02:06:36.673Z,99528.53
2022-11-14T02:09:22.583Z,99509.81
2022-11-14T02:12:12.443Z,99552.94
2022-11-14T02:14:59.441Z,99552.06
2022-11-14T02:17:45.481Z,99568.09
2022-11-14T02:20:36.077Z,99597.06
2022-11-14T02:23:32.186Z,99560.91
2022-11-14T02:26:19.952Z,99551.25
2022-11-14T02:29:10.038Z,99584.50
2022-11-14T02:31:55.974Z,99590.59
2022-11-14T02:34:41.673Z,99548.63
2022-11-14T02:37:27.811Z,99554.34
2022-11-14T02:40:13.433Z,99554.16
2022-11-14T02:42:58.932Z,99558.63
2022-11-14T02:45:44.592Z,99567.88
2022-11-14T02:48:30.445Z,99582.66
2022-11-14T02:51:16.309Z,99600.28
2022-11-14T02:54:02.085Z,99559.00
2022-11-14T02:56:47.753Z,99565.16
2022-11-14T02:59:33.229Z,99570.25
2022-11-14T03:02:18.583Z,99593.28
2022-11-14T03:05:04.658Z,99552.97
2022-11-14T03:07:53.933Z,99599.63
2022-11-14T03:10:39.247Z,99592.59
2022-11-14T03:13:30.322Z,99597.31
2022-11-14T03:16:16.445Z,99582.13
2022-11-14T03:19:02.667Z,99605.16
2022-11-14T03:21:48.355Z,99600.03
2022-11-14T03:24:34.098Z,99581.50
2022-11-14T03:27:20.972Z,99582.94
2022-11-14T03:30:07.172Z,99593.22
2022-11-14T03:32:52.523Z,99585.28
2022-11-14T03:35:43.003Z,99618.88
2022-11-14T03:38:29.244Z,99605.78
2022-11-14T03:41:15.186Z,99608.84
2022-11-14T03:44:00.848Z,99635.66
2022-11-14T03:46:46.763Z,99622.19
2022-11-14T03:49:32.643Z,99597.59
2022-11-14T03:52:18.405Z,99622.13
2022-11-14T03:55:04.356Z,99604.00
2022-11-14T03:57:50.181Z,99636.66
2022-11-14T04:00:36.023Z,99645.66
2022-11-14T04:03:22.085Z,99602.34
2022-11-14T04:06:07.462Z,99608.44
2022-11-14T04:08:53.150Z,99638.75
2022-11-14T04:11:38.608Z,99628.38
2022-11-14T04:14:24.028Z,99638.31
2022-11-14T04:17:09.809Z,99644.94
2022-11-14T04:19:56.217Z,99591.44
2022-11-14T04:22:42.006Z,99623.69
2022-11-14T04:25:27.588Z,99639.50
2022-11-14T04:28:13.711Z,99685.31
2022-11-14T04:31:00.594Z,99639.06
2022-11-14T04:33:46.063Z,99656.16
2022-11-14T04:36:31.490Z,99646.03
2022-11-14T04:39:18.365Z,99669.34
2022-11-14T04:42:04.483Z,99680.81
2022-11-14T04:44:50.370Z,99673.66
2022-11-14T04:47:38.033Z,99643.63
2022-11-14T04:50:23.619Z,99659.50
2022-11-14T04:53:09.274Z,99654.28
2022-11-14T04:55:54.824Z,99676.78
2022-11-14T04:58:40.516Z,99666.84
2022-11-14T05:01:26.100Z,99672.94
2022-11-14T05:04:11.479Z,99678.28
2022-11-14T05:06:57.401Z,99654.94
2022-11-14T05:09:42.776Z,99640.94
2022-11-14T05:12:30.092Z,99681.44
2022-11-14T05:15:15.938Z,99682.72
2022-11-14T05:18:01.712Z,99702.03
2022-11-14T05:20:47.434Z,99702.13
2022-11-14T05:23:33.417Z,99698.00
2022-11-14T05:26:19.535Z,99731.63
2022-11-14T05:29:06.001Z,99695.41
2022-11-14T05:31:51.578Z,99708.81
2022-11-14T05:34:43.683Z,99725.72
2022-11-14T05:37:29.797Z,99724.16
2022-11-14T05:40:17.166Z,99717.56
2022-11-14T05:43:02.607Z,99748.16
2022-11-14T05:45:48.321Z,99760.81
2022-11-14T05:48:34.120Z,99739.31
2022-11-14T05:51:19.809Z,99728.50
2022-11-14T05:54:05.819Z,99734.00
2022-11-14T05:56:51.556Z,99725.25
2022-11-14T05:59:37.280Z,99761.56
2022-11-14T06:02:23.572Z,99756.59
2022-11-14T06:05:09.244Z,99766.47
2022-11-14T06:07:59.329Z,99777.38
2022-11-14T06:10:44.872Z,99768.25
2022-11-14T06:13:31.492Z,99767.09
2022-11-14T06:16:19.385Z,99801.28
2022-11-14T06:19:05.593Z,99789.97
2022-11-14T06:21:51.260Z,99783.19
2022-11-14T06:24:37.329Z,99785.19
2022-11-14T06:27:23.176Z,99804.00
2022-11-14T06:30:09.372Z,99793.81
2022-11-14T06:33:03.856Z,99810.16
2022-11-14T06:35:49.077Z,99817.25
2022-11-14T06:38:36.844Z,99832.94
2022-11-14T06:41:23.320Z,99807.22
2022-11-14T06:44:09.940Z,99789.50
2022-11-14T06:46:56.685Z,99830.00
2022-11-14T06:49:42.232Z,99831.91
2022-11-14T06:52:27.765Z,99832.72
2022-11-14T06:55:13.617Z,99848.16
2022-11-14T06:58:02.339Z,99826.03
2022-11-14T07:00:47.825Z,99813.09
2022-11-14T07:03:34.345Z,99814.31
2022-11-14T07:06:26.006Z,99822.66
2022-11-14T07:09:11.603Z,99853.53
2022-11-14T07:11:57.356Z,99853.34
2022-11-14T07:14:42.907Z,99847.56
2022-11-14T07:17:31.324Z,99839.53
2022-11-14T07:20:18.715Z,99838.19
2022-11-14T07:23:04.259Z,99853.22
2022-11-14T07:25:49.816Z,99850.38
2022-11-14T07:28:37.497Z,99835.41
2022-11-14T07:31:23.234Z,99848.72
2022-11-14T07:34:09.301Z,99861.28
2022-11-14T07:36:55.323Z,99861.28
2022-11-14T07:39:40.717Z,99847.47
2022-11-14T07:42:29.920Z,99869.00
2022-11-14T07:45:16.052Z,99851.91
2022-11-14T07:48:02.457Z,99858.53
2022-11-14T07:50:48.235Z,99856.13
2022-11-14T07:53:34.587Z,99877.75
2022-11-14T07:56:20.429Z,99873.97
2022-11-14T07:59:06.024Z,99878.94
2022-11-14T08:01:51.758Z,99862.84
2022-11-14T08:04:37.400Z,99875.63
2022-11-14T08:07:22.981Z,99883.78
2022-11-14T08:10:09.301Z,99871.47
2022-11-14T08:13:32.167Z,99872.97
2022-11-14T08:16:13.670Z,99888.50
2022-11-14T08:18:59.886Z,99879.34
2022-11-14T08:21:45.594Z,99891.09
2022-11-14T08:24:31.253Z,99870.31
2022-11-14T08:27:16.728Z,99880.44
2022-11-14T08:30:02.485Z,99887.06
2022-11-14T08:32:48.007Z,99885.97
2022-11-14T08:35:34.116Z,99895.59
2022-11-14T08:38:19.944Z,99900.22
2022-11-14T08:41:05.553Z,99886.22
2022-11-14T08:43:51.297Z,99871.97
2022-11-14T08:46:36.726Z,99877.03
2022-11-14T08:49:22.590Z,99876.03
2022-11-14T08:52:11.208Z,99870.97
2022-11-14T08:55:00.925Z,99892.84
2022-11-14T08:57:49.602Z,99900.50
2022-11-14T09:00:35.748Z,99893.78
2022-11-14T09:03:21.229Z,99909.63
2022-11-14T09:06:07.148Z,99908.78
2022-11-14T09:08:56.215Z,99908.22
2022-11-14T09:11:41.688Z,99908.22
2022-11-14T09:14:27.334Z,99895.16
2022-11-14T09:17:12.955Z,99891.03
2022-11-14T09:19:58.597Z,99900.78
2022-11-14T09:22:44.037Z,99899.19
2022-11-14T09:25:30.529Z,99906.38
2022-11-14T09:28:16.002Z,99886.16
2022-11-14T09:31:06.841Z,99893.78
2022-11-14T09:33:52.456Z,99884.69
2022-11-14T09:36:37.814Z,99904.66
2022-11-14T09:39:23.700Z,99897.66
2022-11-14T09:42:18.507Z,99891.75
2022-11-14T09:45:10.773Z,99902.88
2022-11-14T09:48:06.015Z,99880.91
2022-11-14T09:51:08.440Z,99880.72
2022-11-14T09:54:07.019Z,99893.13
2022-11-14T09:56:54.296Z,99893.75
2022-11-14T09:59:39.893Z,99906.34
2022-11-14T10:02:37.007Z,99921.19
2022-11-14T10:05:36.932Z,99886.66
2022-11-14T10:08:41.031Z,99898.72
2022-11-14T10:11:44.793Z,99896.03
2022-11-14T10:15:00.150Z,99899.34
2022-11-14T10:17:51.436Z,99900.81
2022-11-14T10:21:08.053Z,99902.09
2022-11-14T10:24:03.199Z,99886.25
2022-11-14T10:27:02.255Z,99864.59
2022-11-14T10:30:02.693Z,99883.97
2022-11-14T10:33:03.411Z,99879.31
2022-11-14T10:35:56.843Z,99870.59
2022-11-14T10:38:54.066Z,99866.53
2022-11-14T10:41:56.726Z,99879.91
2022-11-14T10:45:05.483Z,99871.50
2022-11-14T10:48:03.092Z,99884.91
2022-11-14T10:50:56.181Z,99880.50
2022-11-14T10:53:53.277Z,99879.47
2022-11-14T10:56:48.394Z,99873.88
2022-11-14T10:59:34.448Z,99871.84
2022-11-14T11:02:19.909Z,99877.72
2022-11-14T11:05:17.372Z,99869.31
2022-11-14T11:08:41.837Z,99879.63
2022-11-14T11:11:30.093Z,99880.44
2022-11-14T11:14:20.058Z,99886.38
2022-11-14T11:17:11.514Z,99870.31
2022-11-14T11:20:25.766Z,99873.19
2022-11-14T11:23:11.144Z,99880.13
2022-11-14T11:26:07.875Z,99870.28
2022-11-14T11:29:09.763Z,99873.63
2022-11-14T11:31:58.426Z,99875.47
2022-11-14T11:34:44.798Z,99845.44
2022-11-14T11:37:41.869Z,99885.72
2022-11-14T11:40:29.221Z,99894.69
2022-11-14T11:43:38.864Z,99879.78
2022-11-14T11:46:42.726Z,99876.09
2022-11-14T11:49:31.135Z,99871.72
2022-11-14T11:52:28.188Z,99862.28
2022-11-14T11:55:27.350Z,99891.81
2022-11-14T11:58:22.341Z,99889.59
2022-11-14T12:01:12.066Z,99897.59
2022-11-14T12:03:58.790Z,99883.28
2022-11-14T12:07:08.645Z,99880.72
2022-11-14T12:10:11.284Z,99884.41
2022-11-14T12:13:00.104Z,99891.34
2022-11-14T12:15:53.812Z,99892.72
2022-11-14T12:18:47.967Z,99881.22
2022-11-14T12:21:48.519Z,99889.69
2022-11-14T12:24:52.367Z,99883.06
2022-11-14T12:27:43.769Z,99892.28
2022-11-14T12:30:31.903Z,99874.06
2022-11-14T12:33:30.224Z,99885.00
2022-11-14T12:36:16.036Z,99925.88
2022-11-14T12:39:02.444Z,99907.28
2022-11-14T12:41:48.916Z,99859.06
2022-11-14T12:44:38.018Z,99882.81
2022-11-14T12:47:28.266Z,99869.81
2022-11-14T12:50:40.011Z,99859.13
2022-11-14T12:53:37.398Z,99877.03
2022-11-14T12:56:32.011Z,99881.38
2022-11-14T12:59:20.428Z,99884.06
2022-11-14T13:02:26.659Z,99885.28
2022-11-14T13:05:37.228Z,99891.22
2022-11-14T13:08:47.590Z,99878.94
2022-11-14T13:12:01.140Z,99872.69
2022-11-14T13:15:15.669Z,99876.13
2022-11-14T13:18:42.212Z,99897.00
2022-11-14T13:21:46.249Z,99886.97
2022-11-14T13:25:00.023Z,99887.53
2022-11-14T13:28:06.531Z,99879.44
2022-11-14T13:31:15.623Z,99886.69
2022-11-14T13:34:21.715Z,99878.41
2022-11-14T13:37:32.418Z,99884.31
2022-11-14T13:40:36.584Z,99883.19
2022-11-14T13:43:31.265Z,99898.75
2022-11-14T13:46:20.413Z,99899.28
2022-11-14T13:49:43.748Z,99882.84
2022-11-14T13:52:40.336Z,99879.84
2022-11-14T13:55:47.427Z,99878.38
2022-11-14T13:59:14.352Z,99877.09
2022-11-14T14:02:11.827Z,99890.78
2022-11-14T14:05:10.910Z,99886.81
2022-11-14T14:08:11.752Z,99881.69
2022-11-14T14:11:23.744Z,99896.19
2022-11-14T14:14:24.563Z,99868.06
2022-11-14T14:17:17.603Z,99880.44
2022-11-14T14:20:18.744Z,99869.84
2022-11-14T14:23:23.883Z,99867.84
2022-11-14T14:26:34.028Z,99872.53
2022-11-14T14:29:43.481Z,99890.16
2022-11-14T14:32:30.362Z,99888.88
2022-11-14T14:35:39.090Z,99874.78
2022-11-14T14:38:28.483Z,99880.78
2022-11-14T14:41:20.534Z,99892.91
2022-11-14T14:44:06.939Z,99888.41
2022-11-14T14:46:55.696Z,99883.78
2022-11-14T14:49:42.019Z,99879.47
2022-11-14T14:52:37.120Z,99871.66
2022-11-14T14:55:30.421Z,99869.88
2022-11-14T14:58:26.120Z,99871.34
2022-11-14T15:01:16.850Z,99877.31
2022-11-14T15:04:08.697Z,99866.91
2022-11-14T15:06:57.695Z,99886.50
2022-11-14T15:09:59.791Z,99866.91
2022-11-14T15:12:45.590Z,99875.56
2022-11-14T15:15:33.679Z,99872.72
2022-11-14T15:18:27.705Z,99886.44
2022-11-14T15:21:25.697Z,99873.88
2022-11-14T15:24:23.356Z,99874.00
2022-11-14T15:27:17.835Z,99876.59
2022-11-14T15:30:20.274Z,99882.75
2022-11-14T15:33:28.447Z,99880.22
2022-11-14T15:36:18.183Z,99861.38
2022-11-14T15:39:27.095Z,99866.97
2022-11-14T15:42:24.645Z,99843.19
2022-11-14T15:45:25.089Z,99863.41
2022-11-14T15:48:19.394Z,99860.38
2022-11-14T15:51:09.224Z,99850.16
2022-11-14T15:53:59.826Z,99830.78
2022-11-14T15:56:50.108Z,99863.50
2022-11-14T15:59:36.839Z,99870.41
2022-11-14T16:02:29.864Z,99862.25
2022-11-14T16:05:17.068Z,99836.84
2022-11-14T16:08:04.127Z,99852.69
2022-11-14T16:10:52.295Z,99847.44
2022-11-14T16:13:37.770Z,99866.75
2022-11-14T16:16:23.330Z,99862.50
2022-11-14T16:19:10.773Z,99854.44
2022-11-14T16:22:02.831Z,99858.38
2022-11-14T16:24:48.954Z,99861.50
2022-11-14T16:27:34.703Z,99865.63
2022-11-14T16:30:21.557Z,99860.84
2022-11-14T16:33:08.758Z,99852.03
2022-11-14T16:35:54.322Z,99849.63
2022-11-14T16:38:39.805Z,99842.00
2022-11-14T16:41:25.360Z,99852.50
2022-11-14T16:44:17.179Z,99858.28
2022-11-14T16:47:03.423Z,99842.38
2022-11-14T16:49:55.119Z,99829.69
2022-11-14T16:52:40.948Z,99850.38
2022-11-14T16:55:26.693Z,99844.84
2022-11-14T16:58:12.247Z,99835.41
2022-11-14T17:00:58.658Z,99845.31
2022-11-14T17:03:44.389Z,99832.72
2022-11-14T17:06:30.292Z,99835.28
2022-11-14T17:09:16.437Z,99846.03
2022-11-14T17:12:03.327Z,99830.34
2022-11-14T17:14:48.943Z,99822.03
2022-11-14T17:17:35.170Z,99836.59
2022-11-14T17:20:21.147Z,99818.75
2022-11-14T17:23:06.908Z,99844.22
2022-11-14T17:25:56.506Z,99824.16
2022-11-14T17:28:43.415Z,99833.34
2022-11-14T17:31:33.723Z,99828.28
2022-11-14T17:34:22.165Z,99824.41
2022-11-14T17:37:07.758Z,99815.59
2022-11-14T17:39:53.307Z,99821.56
2022-11-14T17:42:39.334Z,99812.72
2022-11-14T17:45:25.189Z,99828.47
2022-11-14T17:48:13.093Z,99799.13
2022-11-14T17:51:04.560Z,99815.75
2022-11-14T17:53:50.320Z,99823.84
2022-11-14T17:56:38.058Z,99816.31
2022-11-14T17:59:27.463Z,99802.88
2022-11-14T18:02:14.483Z,99815.03
2022-11-14T18:05:00.138Z,99823.31
2022-11-14T18:07:45.936Z,99824.50
2022-11-14T18:10:31.785Z,99804.72
2022-11-14T18:13:17.715Z,99828.09
2022-11-14T18:16:21.338Z,99813.09
2022-11-14T18:19:07.182Z,99807.31
2022-11-14T18:21:53.998Z,99802.59
2022-11-14T18:24:43.460Z,99813.53
2022-11-14T18:27:32.104Z,99813.28
2022-11-14T18:30:40.480Z,99809.78
2022-11-14T18:33:23.896Z,99810.44
2022-11-14T18:36:13.014Z,99813.28
2022-11-14T18:38:58.589Z,99799.31
2022-11-14T18:41:44.141Z,99811.31
2022-11-14T18:44:30.032Z,99817.69
2022-11-14T18:47:16.698Z,99826.69
2022-11-14T18:50:04.020Z,99803.81
2022-11-14T18:52:49.602Z,99820.28
2022-11-14T18:55:41.581Z,99805.94
2022-11-14T18:58:27.134Z,99805.81
2022-11-14T19:01:22.025Z,99795.44
2022-11-14T19:04:09.475Z,99793.41
2022-11-14T19:06:56.385Z,99795.91
2022-11-14T19:09:44.399Z,99784.50
2022-11-14T19:12:30.419Z,99798.03
2022-11-14T19:15:16.188Z,99785.91
2022-11-14T19:18:02.061Z,99808.25
2022-11-14T19:20:59.131Z,99792.00
2022-11-14T19:23:44.717Z,99785.09
2022-11-14T19:26:30.925Z,99784.25
2022-11-14T19:29:16.737Z,99780.38
2022-11-14T19:32:03.439Z,99778.47
2022-11-14T19:34:49.227Z,99791.25
2022-11-14T19:37:34.998Z,99755.47
2022-11-14T19:40:20.868Z,99778.34
2022-11-14T19:43:07.588Z,99781.50
2022-11-14T19:45:53.182Z,99787.00
2022-11-14T19:48:40.645Z,99783.16
2022-11-14T19:51:29.916Z,99769.53
2022-11-14T19:54:15.865Z,99751.66
2022-11-14T19:57:01.667Z,99779.56
2022-11-14T19:59:47.316Z,99745.19
2022-11-14T20:02:32.866Z,99765.31
2022-11-14T20:05:18.948Z,99756.94
2022-11-14T20:08:04.590Z,99761.28
2022-11-14T20:11:04.195Z,99763.09
2022-11-14T20:13:50.452Z,99751.16
2022-11-14T20:16:37.142Z,99760.91
2022-11-14T20:19:22.734Z,99754.09
2022-11-14T20:22:09.826Z,99745.47
2022-11-14T20:24:55.257Z,99751.88
2022-11-14T20:27:40.978Z,99765.59
2022-11-14T20:30:27.283Z,99765.59
2022-11-14T20:33:12.864Z,99758.78
2022-11-14T20:36:02.923Z,99767.41
2022-11-14T20:38:50.501Z,99763.75
2022-11-14T20:41:36.208Z,99752.44
2022-11-14T20:44:21.821Z,99769.34
2022-11-14T20:47:10.869Z,99763.28
2022-11-14T20:49:57.008Z,99744.81
2022-11-14T20:52:44.768Z,99747.47
2022-11-14T20:55:30.264Z,99767.16
2022-11-14T20:58:16.104Z,99762.34
2022-11-14T21:01:02.000Z,99759.16
2022-11-14T21:03:49.053Z,99754.34
2022-11-14T21:06:34.437Z,99748.56
2022-11-14T21:09:19.948Z,99742.03
2022-11-14T21:12:05.570Z,99747.66
2022-11-14T21:14:51.044Z,99754.72
2022-11-14T21:17:36.654Z,99733.03
2022-11-14T21:20:22.168Z,99754.34
2022-11-14T21:23:07.688Z,99747.34
2022-11-14T21:26:00.320Z,99739.03
2022-11-14T21:28:47.748Z,99723.81
2022-11-14T21:31:39.149Z,99777.13
2022-11-14T21:34:24.608Z,99749.16
2022-11-14T21:37:10.010Z,99746.66
2022-11-14T21:39:55.724Z,99746.22
2022-11-14T21:42:48.405Z,99735.16
2022-11-14T21:45:34.436Z,99731.03
2022-11-14T21:48:19.823Z,99742.25
2022-11-14T21:51:14.264Z,99735.25
2022-11-14T21:54:00.047Z,99708.44
2022-11-14T21:56:45.482Z,99728.63
2022-11-14T21:59:31.576Z,99719.59
2022-11-14T22:02:38.438Z,99733.44
2022-11-14T22:05:26.493Z,99718.97
2022-11-14T22:08:15.502Z,99719.09
2022-11-14T22:11:04.636Z,99723.81
2022-11-14T22:13:50.603Z,99727.28
2022-11-14T22:16:36.227Z,99714.66
2022-11-14T22:19:21.793Z,99710.69
2022-11-14T22:22:08.157Z,99716.84
2022-11-14T22:24:53.690Z,99701.97
2022-11-14T22:27:39.396Z,99697.66
2022-11-14T22:30:24.814Z,99716.31
2022-11-14T22:33:10.718Z,99709.16
2022-11-14T22:36:01.127Z,99713.72
2022-11-14T22:38:47.088Z,99705.72
2022-11-14T22:41:33.892Z,99705.53
2022-11-14T22:44:19.915Z,99694.88
2022-11-14T22:47:05.392Z,99690.00
2022-11-14T22:49:50.639Z,99696.41
2022-11-14T22:52:35.754Z,99698.47
2022-11-14T22:55:21.181Z,99694.66
2022-11-14T22:58:06.432Z,99704.31
2022-11-14T23:00:52.692Z,99706.59
2022-11-14T23:03:39.138Z,99701.50
2022-11-14T23:06:25.308Z,99703.03
2022-11-14T23:09:11.817Z,99676.19
2022-11-14T23:11:57.584Z,99694.97
2022-11-14T23:14:43.186Z,99689.25
2022-11-14T23:17:30.240Z,99687.97
2022-11-14T23:20:16.908Z,99690.47
2022-11-14T23:23:03.390Z,99695.34
2022-11-14T23:25:48.896Z,99689.81
2022-11-14T23:28:34.507Z,99688.50
2022-11-14T23:31:20.379Z,99680.25
2022-11-14T23:34:05.953Z,99677.78
2022-11-14T23:36:51.607Z,99667.44
2022-11-14T23:39:37.356Z,99651.19
2022-11-14T23:42:23.254Z,99659.44
2022-11-14T23:45:09.012Z,99652.00
2022-11-14T23:47:54.496Z,99665.13
2022-11-14T23:50:39.986Z,99654.47
2022-11-14T23:53:25.735Z,99643.38
2022-11-14T23:56:13.617Z,99653.28
2022-11-14T23:58:59.033Z,99650.41
